Time;durP1;ratioP1;P1;durP2;ratioP2;P2;SDS_P1;SDS_P2;PMS_P1;PMS_P2;Temp;Humidity;BMP_temperature;BMP_pressure;BME280_temperature;BME280_humidity;BME280_pressure;Samples;Min_cycle;Max_cycle;Signal;HPM_P1;HPM_P2
2024/01/02 01:06:43;;;;;;;1.30;0.40;;;7.70;99.90;;;;;;4784636;29;20034;-70
2024/01/02 01:09:09;;;;;;;3.47;1.08;;;7.80;99.90;;;;;;4790801;29;20043;-69
2024/01/02 01:33:59;;;;;;;1.85;0.82;;;8.00;99.90;;;;;;4820027;29;20038;-69
2024/01/02 01:36:26;;;;;;;0.25;0.25;;;8.00;99.90;;;;;;4821207;29;20129;-68
2024/01/02 01:38:52;;;;;;;8.30;1.00;;;8.00;99.90;;;;;;4820170;29;20464;-68
2024/01/02 01:41:18;;;;;;;2.95;0.20;;;8.00;99.90;;;;;;4818347;29;20038;-69
2024/01/02 01:43:45;;;;;;;3.95;0.98;;;8.00;99.90;;;;;;4816861;29;20030;-68
2024/01/02 01:46:13;;;;;;;2.92;0.73;;;8.00;99.90;;;;;;4819514;29;20057;-68
2024/01/02 01:48:39;;;;;;;0.80;0.30;;;8.10;99.90;;;;;;4814188;29;20030;-69
2024/01/02 01:51:06;;;;;;;5.47;0.52;;;8.10;99.90;;;;;;4818787;29;20041;-69
2024/01/02 01:53:32;;;;;;;3.60;0.68;;;8.00;99.90;;;;;;4817435;29;20026;-69
2024/01/02 01:55:58;;;;;;;2.17;0.32;;;8.00;99.90;;;;;;4805482;29;20030;-69
2024/01/02 01:58:26;;;;;;;0.80;0.40;;;8.00;99.90;;;;;;4815742;29;20076;-69
2024/01/02 02:00:51;;;;;;;0.75;0.20;;;8.00;99.90;;;;;;4814234;29;20483;-68
2024/01/02 02:03:18;;;;;;;0.63;0.50;;;8.00;99.90;;;;;;4804584;29;20038;-69
2024/01/02 02:05:54;;;;;;;4.10;0.65;;;8.00;99.90;;;;;;4798843;29;20041;-70
2024/01/02 02:08:20;;;;;;;0.52;0.20;;;8.00;99.90;;;;;;4815972;29;20035;-70
2024/01/02 02:10:46;;;;;;;1.08;0.30;;;7.90;99.90;;;;;;4812131;29;20399;-69
2024/01/02 02:13:12;;;;;;;5.75;0.82;;;7.90;99.90;;;;;;4816680;29;20039;-69
2024/01/02 02:15:40;;;;;;;2.00;0.73;;;7.80;99.90;;;;;;4819034;29;20027;-69
2024/01/02 02:18:06;;;;;;;1.38;0.52;;;7.80;99.90;;;;;;4800833;29;20046;-69
2024/01/02 02:20:32;;;;;;;1.85;0.30;;;7.80;99.90;;;;;;4820437;29;20046;-69
2024/01/02 02:22:57;;;;;;;1.75;0.70;;;7.70;99.90;;;;;;4804456;29;20046;-69
2024/01/02 02:25:23;;;;;;;0.43;0.28;;;7.70;99.90;;;;;;4821897;29;20102;-70
2024/01/02 02:27:49;;;;;;;0.60;0.40;;;7.60;99.90;;;;;;4820837;29;20038;-69
2024/01/02 02:30:15;;;;;;;2.15;0.85;;;7.70;99.90;;;;;;4821996;29;20490;-69
2024/01/02 02:32:41;;;;;;;0.22;0.20;;;7.60;99.90;;;;;;4819585;29;20027;-69
2024/01/02 02:35:08;;;;;;;2.80;0.60;;;7.60;99.90;;;;;;4819227;29;20045;-69
2024/01/02 02:37:34;;;;;;;0.65;0.57;;;7.60;99.90;;;;;;4816335;29;20087;-69
2024/01/02 02:40:00;;;;;;;1.33;0.30;;;7.50;99.90;;;;;;4809475;29;20026;-69
2024/01/02 02:42:26;;;;;;;0.47;0.17;;;7.50;99.90;;;;;;4821763;29;20479;-69
2024/01/02 02:44:52;;;;;;;0.30;0.22;;;7.40;99.90;;;;;;4809784;29;20034;-69
2024/01/02 03:10:00;;;;;;;3.45;0.47;;;7.20;99.90;;;;;;4821884;29;20407;-71
2024/01/02 03:12:26;;;;;;;0.20;0.10;;;7.20;99.90;;;;;;4822555;29;20041;-70
2024/01/02 03:14:52;;;;;;;0.90;0.50;;;7.20;99.90;;;;;;4808000;29;20410;-70
2024/01/02 03:17:17;;;;;;;4.95;0.22;;;7.20;99.90;;;;;;4823766;29;20867;-70
2024/01/02 03:19:43;;;;;;;0.65;0.43;;;7.20;99.90;;;;;;4824317;29;20114;-69
2024/01/02 03:22:09;;;;;;;1.02;0.40;;;7.20;99.90;;;;;;4821051;29;20134;-69
2024/01/02 03:24:35;;;;;;;0.40;0.40;;;7.10;99.90;;;;;;4823846;29;20038;-70
2024/01/02 03:27:00;;;;;;;0.25;0.17;;;7.10;99.90;;;;;;4824161;29;20117;-70
2024/01/02 03:29:27;;;;;;;0.63;0.40;;;7.20;99.90;;;;;;4807439;29;20029;-70
2024/01/02 03:31:53;;;;;;;8.93;0.35;;;7.10;99.90;;;;;;4823377;29;20030;-70
2024/01/02 03:34:19;;;;;;;0.47;0.20;;;7.10;99.90;;;;;;4822207;29;20034;-70
2024/01/02 03:36:45;;;;;;;0.73;0.40;;;7.10;99.90;;;;;;4822290;29;20432;-70
2024/01/02 03:39:11;;;;;;;0.10;0.10;;;7.10;99.90;;;;;;4823500;29;20053;-70
2024/01/02 03:41:37;;;;;;;0.20;0.20;;;7.10;99.90;;;;;;4822078;29;20511;-70
2024/01/02 03:44:02;;;;;;;1.80;0.30;;;7.10;99.90;;;;;;4792569;29;20267;-70
2024/01/02 03:46:28;;;;;;;1.25;0.32;;;7.10;99.90;;;;;;4823890;29;20034;-70
2024/01/02 03:48:54;;;;;;;0.52;0.20;;;7.10;99.90;;;;;;4821050;29;20495;-70
2024/01/02 03:51:20;;;;;;;0.75;0.38;;;7.10;99.90;;;;;;4822021;29;20041;-70
2024/01/02 03:53:45;;;;;;;0.52;0.20;;;7.10;99.90;;;;;;4815317;29;20033;-70
2024/01/02 03:56:11;;;;;;;6.22;0.85;;;7.10;99.90;;;;;;4822610;29;20068;-70
2024/01/02 03:58:39;;;;;;;0.95;0.32;;;7.10;99.90;;;;;;4807225;29;20058;-70
2024/01/02 04:01:05;;;;;;;5.00;0.90;;;7.20;99.90;;;;;;4807926;29;20424;-70
2024/01/02 04:03:30;;;;;;;0.25;0.25;;;7.10;99.90;;;;;;4820272;29;20042;-70
2024/01/02 04:05:56;;;;;;;0.10;0.10;;;7.10;99.90;;;;;;4812985;29;20030;-70
2024/01/02 04:08:22;;;;;;;1.02;0.40;;;7.10;99.90;;;;;;4823475;29;20713;-70
2024/01/02 04:10:48;;;;;;;0.65;0.30;;;7.10;99.90;;;;;;4805882;29;20069;-70
2024/01/02 04:13:14;;;;;;;0.30;0.17;;;7.20;99.90;;;;;;4820635;29;20034;-70
2024/01/02 04:15:40;;;;;;;1.17;0.65;;;7.20;99.90;;;;;;4822103;29;20714;-70
2024/01/02 04:18:06;;;;;;;0.50;0.20;;;7.20;99.90;;;;;;4806751;29;20038;-70
2024/01/02 04:20:32;;;;;;;2.67;0.40;;;7.20;99.90;;;;;;4822706;29;20654;-70
2024/01/02 04:22:58;;;;;;;0.55;0.55;;;7.20;99.90;;;;;;4821283;29;20129;-70
2024/01/02 04:25:26;;;;;;;0.10;0.10;;;7.20;99.90;;;;;;4822260;29;20042;-70
2024/01/02 04:27:55;;;;;;;1.95;0.30;;;7.10;99.90;;;;;;4813511;29;20038;-70
2024/01/02 04:30:24;;;;;;;0.25;0.10;;;7.20;99.90;;;;;;4821388;29;20118;-70
2024/01/02 04:32:51;;;;;;;0.22;0.20;;;7.20;99.90;;;;;;4800123;29;20030;-70
2024/01/02 04:35:17;;;;;;;0.25;0.17;;;7.20;99.90;;;;;;4821328;29;20460;-70
2024/01/02 04:37:43;;;;;;;0.10;0.10;;;7.30;99.90;;;;;;4821204;29;20117;-70
2024/01/02 04:40:11;;;;;;;0.98;0.25;;;7.30;99.90;;;;;;4820848;29;20487;-70
2024/01/02 04:42:40;;;;;;;1.95;0.20;;;7.30;99.90;;;;;;4822130;29;20046;-70
2024/01/02 04:45:07;;;;;;;0.20;0.20;;;7.30;99.90;;;;;;4792283;29;20046;-70
2024/01/02 04:47:33;;;;;;;2.50;0.50;;;7.30;99.90;;;;;;4821730;29;20039;-70
2024/01/02 04:49:59;;;;;;;0.95;0.90;;;7.30;99.90;;;;;;4823428;29;20035;-69
2024/01/02 04:52:29;;;;;;;0.32;0.20;;;7.20;99.90;;;;;;4820795;29;20644;-71
2024/01/02 04:54:55;;;;;;;0.20;0.10;;;7.20;99.90;;;;;;4821997;29;20057;-70
2024/01/02 04:57:21;;;;;;;0.20;0.20;;;7.20;99.90;;;;;;4821352;29;20030;-69
2024/01/02 04:59:49;;;;;;;0.20;0.20;;;7.20;99.90;;;;;;4800004;29;20030;-69
2024/01/02 05:02:15;;;;;;;0.20;0.20;;;7.20;99.90;;;;;;4804249;29;20042;-70
2024/01/02 05:27:09;;;;;;;0.80;0.40;;;7.40;99.90;;;;;;4868166;23;20240;-64
2024/01/02 05:29:37;;;;;;;0.17;0.17;;;7.30;99.90;;;;;;4857311;29;20045;-67
2024/01/02 05:32:04;;;;;;;0.90;0.32;;;7.30;99.90;;;;;;4858153;29;20029;-65
2024/01/02 05:34:30;;;;;;;0.10;0.10;;;7.30;99.90;;;;;;4858846;29;20521;-64
2024/01/02 05:36:56;;;;;;;0.80;0.20;;;7.30;99.90;;;;;;4859015;29;20109;-66
2024/01/02 06:01:45;;;;;;;0.77;0.23;;;7.30;99.90;;;;;;4855774;29;20045;-67
2024/01/02 06:04:11;;;;;;;0.93;0.40;;;7.40;99.90;;;;;;4854196;29;20041;-67
2024/01/02 06:06:37;;;;;;;1.17;0.28;;;7.40;99.90;;;;;;4869002;29;20249;-68
2024/01/02 06:09:03;;;;;;;0.38;0.10;;;7.40;99.90;;;;;;4860058;29;20065;-66
2024/01/02 06:11:29;;;;;;;0.17;0.17;;;7.40;99.90;;;;;;4898151;29;20505;-67
2024/01/02 06:13:54;;;;;;;0.63;0.63;;;7.40;99.90;;;;;;4919415;29;20036;-67
2024/01/02 06:16:20;;;;;;;4.85;0.30;;;7.40;99.90;;;;;;4856997;29;20101;-68
2024/01/02 06:18:46;;;;;;;0.13;0.13;;;7.50;99.90;;;;;;4787015;29;20045;-67
2024/01/02 06:21:12;;;;;;;0.20;0.20;;;7.50;99.90;;;;;;4674087;30;1372490;-67
2024/01/02 06:23:38;;;;;;;0.20;0.20;;;7.50;99.90;;;;;;4703879;30;20633;-67
2024/01/02 06:26:04;;;;;;;0.30;0.28;;;7.50;99.90;;;;;;4687272;30;20094;-68
2024/01/02 06:28:30;;;;;;;0.32;0.10;;;7.50;99.90;;;;;;4683441;30;20042;-67
2024/01/02 06:30:55;;;;;;;0.95;0.28;;;7.50;99.90;;;;;;4686683;30;20034;-66
2024/01/02 06:33:22;;;;;;;0.00;0.00;;;7.50;99.90;;;;;;4686529;30;20096;-67
2024/01/02 06:35:48;;;;;;;0.10;0.10;;;7.60;99.90;;;;;;4669478;30;20471;-67
2024/01/02 06:38:13;;;;;;;1.75;0.38;;;7.50;99.90;;;;;;4666958;30;20038;-65
2024/01/02 06:40:39;;;;;;;0.00;0.00;;;7.50;99.90;;;;;;4684012;30;20141;-66
2024/01/02 06:43:05;;;;;;;0.10;0.10;;;7.60;99.90;;;;;;4680947;30;20474;-65
2024/01/02 06:45:31;;;;;;;0.45;0.15;;;7.60;99.90;;;;;;4683763;30;20049;-66
2024/01/02 06:47:58;;;;;;;0.10;0.10;;;7.60;99.90;;;;;;4684101;30;20038;-66
2024/01/02 06:50:23;;;;;;;4.60;0.13;;;7.60;99.90;;;;;;4682398;30;20504;-65
2024/01/02 06:52:49;;;;;;;0.10;0.10;;;7.60;99.90;;;;;;4680350;30;20069;-64
2024/01/02 06:55:15;;;;;;;0.70;0.10;;;7.70;99.90;;;;;;4682246;30;20488;-66
2024/01/02 06:57:41;;;;;;;0.15;0.13;;;7.70;99.90;;;;;;4680392;30;20058;-65
2024/01/02 07:00:10;;;;;;;0.10;0.10;;;7.70;99.90;;;;;;4681986;30;20034;-66
2024/01/02 07:02:36;;;;;;;0.08;0.08;;;7.70;99.90;;;;;;4668634;30;20038;-66
2024/01/02 07:05:03;;;;;;;0.35;0.13;;;7.70;99.90;;;;;;4683753;30;20092;-67
2024/01/02 07:07:28;;;;;;;0.45;0.30;;;7.70;99.90;;;;;;4669706;30;20038;-69
2024/01/02 07:09:54;;;;;;;0.13;0.10;;;7.80;99.90;;;;;;4680945;30;20452;-65
2024/01/02 07:12:20;;;;;;;0.15;0.15;;;7.80;99.90;;;;;;4684410;30;20049;-65
2024/01/02 07:14:47;;;;;;;0.20;0.20;;;7.80;99.90;;;;;;4683118;30;20030;-64
2024/01/02 07:17:15;;;;;;;0.45;0.15;;;7.80;99.90;;;;;;4681261;30;20041;-65
2024/01/02 07:19:41;;;;;;;0.10;0.10;;;7.90;99.90;;;;;;4683454;30;20092;-64
2024/01/02 07:22:07;;;;;;;0.13;0.13;;;7.80;99.90;;;;;;4767824;29;20074;-66
2024/01/02 07:24:34;;;;;;;0.38;0.20;;;7.90;99.90;;;;;;4793971;29;20035;-65
2024/01/02 07:26:59;;;;;;;0.38;0.30;;;7.90;99.90;;;;;;4805725;29;20083;-65
2024/01/02 07:29:26;;;;;;;0.10;0.10;;;7.90;99.90;;;;;;4816727;29;20114;-65
2024/01/02 07:31:52;;;;;;;0.50;0.10;;;7.90;99.90;;;;;;4808873;29;20460;-66
2024/01/02 07:34:20;;;;;;;0.20;0.20;;;7.90;99.90;;;;;;4802839;29;20041;-66
2024/01/02 07:36:45;;;;;;;0.10;0.10;;;7.90;99.90;;;;;;4804466;29;20035;-66
2024/01/02 07:39:11;;;;;;;0.10;0.10;;;8.00;99.90;;;;;;4803626;29;20050;-66
2024/01/02 07:41:37;;;;;;;0.90;0.30;;;8.00;99.90;;;;;;4805059;29;20057;-66
2024/01/02 07:44:03;;;;;;;0.10;0.10;;;8.00;99.90;;;;;;4804951;29;20038;-66
2024/01/02 07:46:29;;;;;;;0.10;0.10;;;8.00;99.90;;;;;;4804935;29;20411;-66
2024/01/02 07:48:55;;;;;;;0.10;0.10;;;8.10;99.90;;;;;;4808378;29;20035;-66
2024/01/02 07:51:21;;;;;;;0.17;0.15;;;8.10;99.90;;;;;;4826103;29;20095;-66
2024/01/02 07:53:47;;;;;;;1.40;0.25;;;8.10;99.90;;;;;;4803341;29;20042;-66
2024/01/02 07:56:13;;;;;;;0.75;0.28;;;8.20;99.90;;;;;;4824449;29;20043;-66
2024/01/02 07:58:38;;;;;;;0.20;0.10;;;8.20;99.90;;;;;;4812293;29;20038;-66
2024/01/02 08:01:04;;;;;;;0.28;0.13;;;8.20;99.90;;;;;;4806004;29;20484;-66
2024/01/02 08:03:30;;;;;;;0.13;0.13;;;8.30;99.90;;;;;;4813177;29;20041;-66
2024/01/02 08:05:55;;;;;;;0.10;0.10;;;8.30;99.90;;;;;;4803395;29;20507;-66
2024/01/02 08:08:21;;;;;;;1.10;0.28;;;8.30;99.90;;;;;;4819403;29;20074;-66
2024/01/02 08:10:47;;;;;;;0.10;0.10;;;8.30;99.90;;;;;;4801773;29;20795;-71
2024/01/02 08:13:12;;;;;;;0.35;0.17;;;8.30;99.90;;;;;;4820047;29;20064;-69
2024/01/02 08:15:38;;;;;;;0.10;0.10;;;8.30;99.90;;;;;;4807084;29;20062;-68
2024/01/02 08:18:04;;;;;;;0.13;0.10;;;8.30;99.90;;;;;;4806178;29;20035;-65
2024/01/02 08:20:30;;;;;;;0.45;0.40;;;8.40;99.90;;;;;;4815681;29;20042;-65
2024/01/02 08:22:56;;;;;;;0.10;0.10;;;8.40;99.90;;;;;;4846819;29;20105;-69
2024/01/02 08:25:23;;;;;;;0.10;0.10;;;8.40;99.90;;;;;;4855289;29;20533;-68
2024/01/02 08:27:50;;;;;;;0.30;0.10;;;8.30;99.90;;;;;;4854990;29;20065;-67
2024/01/02 08:30:18;;;;;;;0.80;0.32;;;8.30;99.90;;;;;;4869993;29;20040;-68
2024/01/02 08:32:45;;;;;;;0.35;0.35;;;8.40;99.90;;;;;;4872036;29;20068;-68
2024/01/02 08:35:10;;;;;;;0.00;0.00;;;8.40;99.90;;;;;;4855787;29;20037;-68
2024/01/02 08:37:36;;;;;;;0.10;0.10;;;8.40;99.90;;;;;;4852143;29;20395;-68
2024/01/02 08:40:03;;;;;;;0.20;0.20;;;8.40;99.90;;;;;;4856681;29;20033;-67
2024/01/02 08:42:28;;;;;;;0.10;0.10;;;8.40;99.90;;;;;;4845560;29;20037;-68
2024/01/02 08:44:54;;;;;;;0.45;0.30;;;8.40;99.90;;;;;;4853727;29;20029;-67
2024/01/02 08:47:20;;;;;;;0.13;0.13;;;8.50;99.90;;;;;;4854308;29;20490;-67
2024/01/02 08:49:46;;;;;;;0.10;0.10;;;8.50;99.90;;;;;;4851091;29;20034;-67
2024/01/02 08:52:13;;;;;;;0.25;0.10;;;8.50;99.90;;;;;;4848290;29;20025;-68
2024/01/02 08:54:38;;;;;;;0.17;0.17;;;8.50;99.90;;;;;;4854552;29;20030;-68
2024/01/02 08:57:04;;;;;;;0.70;0.20;;;8.50;99.90;;;;;;4845378;29;20052;-68
2024/01/02 08:59:30;;;;;;;0.10;0.10;;;8.60;99.90;;;;;;4859189;29;20039;-68
2024/01/02 09:01:57;;;;;;;0.80;0.45;;;8.50;99.90;;;;;;4847387;29;20364;-68
2024/01/02 09:04:23;;;;;;;1.67;0.60;;;8.50;99.90;;;;;;4851764;29;20040;-68
2024/01/02 09:06:49;;;;;;;0.90;0.10;;;8.50;99.90;;;;;;4848124;29;20483;-68
2024/01/02 09:09:15;;;;;;;0.13;0.10;;;8.50;99.90;;;;;;4852596;29;20041;-68
2024/01/02 09:11:41;;;;;;;0.70;0.25;;;8.50;99.90;;;;;;4856896;29;20038;-68
2024/01/02 09:14:07;;;;;;;0.20;0.10;;;8.50;99.90;;;;;;4871054;29;20033;-68
2024/01/02 09:16:35;;;;;;;0.30;0.30;;;8.60;99.90;;;;;;4844181;29;20032;-68
2024/01/02 09:19:01;;;;;;;0.20;0.20;;;8.70;99.90;;;;;;4858209;29;20029;-68
2024/01/02 09:21:28;;;;;;;0.10;0.10;;;8.60;99.90;;;;;;4836273;29;20465;-68
2024/01/02 09:23:54;;;;;;;0.13;0.13;;;8.70;99.90;;;;;;4841316;29;20105;-68
2024/01/02 09:26:23;;;;;;;0.20;0.20;;;8.60;99.90;;;;;;4817708;29;20041;-68
2024/01/02 09:28:49;;;;;;;0.20;0.20;;;8.60;99.90;;;;;;4831449;29;20412;-66
2024/01/02 09:31:15;;;;;;;0.00;0.00;;;8.60;99.90;;;;;;4837052;29;20034;-66
2024/01/02 09:33:46;;;;;;;0.17;0.17;;;8.70;99.90;;;;;;4830095;29;20298;-66
2024/01/02 09:36:15;;;;;;;0.20;0.13;;;8.60;99.90;;;;;;4816003;29;20042;-66
2024/01/02 09:38:41;;;;;;;0.20;0.20;;;8.70;99.90;;;;;;4823041;29;20063;-67
2024/01/02 09:42:28;;;;;;;0.20;0.20;;;8.70;99.90;;;;;;4834965;29;20663;-65
2024/01/02 09:45:08;;;;;;;0.60;0.38;;;8.70;99.90;;;;;;4780997;29;20070;-66
2024/01/02 09:47:59;;;;;;;2.65;0.25;;;8.80;99.90;;;;;;4809913;29;20412;-66
2024/01/02 09:50:58;;;;;;;0.10;0.10;;;8.70;99.90;;;;;;4833767;29;20522;-65
2024/01/02 09:53:33;;;;;;;1.15;0.63;;;8.70;99.90;;;;;;4805676;29;20046;-66
2024/01/02 09:56:25;;;;;;;0.63;0.40;;;8.70;99.90;;;;;;4830787;29;20647;-67
2024/01/02 09:59:40;;;;;;;0.20;0.15;;;8.70;99.90;;;;;;4830357;29;20045;-67
2024/01/02 10:02:41;;;;;;;0.55;0.10;;;8.70;99.90;;;;;;4818839;29;20710;-67
2024/01/02 10:06:07;;;;;;;0.57;0.43;;;8.70;99.90;;;;;;4831948;29;20072;-67
2024/01/02 10:09:05;;;;;;;0.05;0.05;;;8.80;99.90;;;;;;4775713;29;20122;-65
2024/01/02 10:12:04;;;;;;;0.50;0.30;;;8.80;99.90;;;;;;4766778;30;20156;-67
2024/01/02 10:15:04;;;;;;;2.33;0.30;;;8.90;99.90;;;;;;4785654;29;20042;-68
2024/01/02 10:17:51;;;;;;;0.85;0.40;;;8.90;99.90;;;;;;4776080;30;20172;-68
2024/01/02 10:20:35;;;;;;;0.10;0.10;;;8.90;99.90;;;;;;4771810;30;20140;-68
2024/01/02 10:23:47;;;;;;;1.33;0.35;;;9.00;99.90;;;;;;4801835;29;20031;-67
2024/01/02 10:26:15;;;;;;;0.40;0.10;;;9.00;99.90;;;;;;4801623;29;20051;-67
2024/01/02 10:28:43;;;;;;;11.38;3.83;;;9.00;99.90;;;;;;4786926;29;20038;-68
2024/01/02 10:31:29;;;;;;;2.25;0.85;;;9.00;99.90;;;;;;4787008;29;20035;-67
2024/01/02 10:34:05;;;;;;;3.97;1.05;;;9.00;99.90;;;;;;4795318;29;20035;-68
2024/01/02 10:36:42;;;;;;;0.20;0.10;;;9.00;99.90;;;;;;4804829;29;20059;-68
2024/01/02 10:39:26;;;;;;;0.50;0.32;;;9.00;99.90;;;;;;4825308;29;20073;-69
2024/01/02 10:42:36;;;;;;;0.50;0.40;;;9.00;99.90;;;;;;4829378;29;20126;-68
2024/01/02 10:45:24;;;;;;;0.17;0.17;;;9.10;99.90;;;;;;4834598;29;20079;-70
2024/01/02 10:48:06;;;;;;;0.63;0.25;;;9.10;99.90;;;;;;4839596;29;20030;-68
2024/01/02 10:50:45;;;;;;;0.10;0.10;;;9.10;99.90;;;;;;4835490;29;20390;-67
2024/01/02 10:53:36;;;;;;;0.35;0.25;;;9.00;99.90;;;;;;4834023;29;20077;-68
2024/01/02 10:56:18;;;;;;;0.60;0.13;;;9.10;99.90;;;;;;4830737;29;20030;-68
2024/01/02 10:59:16;;;;;;;;;;;9.10;99.90;;;;;;4837302;29;20042;-68
2024/01/02 11:01:46;;;;;;;0.17;0.10;;;9.10;99.90;;;;;;4842977;29;19923;-68
2024/01/02 11:04:42;;;;;;;0.67;0.33;;;9.20;99.90;;;;;;4838120;29;20834;-68
2024/01/02 11:07:13;;;;;;;0.20;0.17;;;9.20;99.90;;;;;;4837759;29;20072;-68
2024/01/02 11:10:01;;;;;;;1.65;0.20;;;9.20;99.90;;;;;;4837825;29;20026;-68
2024/01/02 11:12:54;;;;;;;0.20;0.20;;;9.20;99.90;;;;;;4842802;29;20453;-67
2024/01/02 11:15:21;;;;;;;0.55;0.17;;;9.20;99.90;;;;;;4837807;29;20038;-67
2024/01/02 11:17:52;;;;;;;0.10;0.10;;;9.20;99.90;;;;;;4842024;29;20498;-67
2024/01/02 11:20:20;;;;;;;0.10;0.10;;;9.20;99.90;;;;;;4837582;29;20038;-67
2024/01/02 11:23:09;;;;;;;0.43;0.20;;;9.20;99.90;;;;;;4826178;29;20787;-68
2024/01/02 11:25:46;;;;;;;0.00;0.00;;;9.30;99.90;;;;;;4841483;29;20046;-69
2024/01/02 11:28:15;;;;;;;0.10;0.10;;;9.30;99.90;;;;;;4851231;29;20395;-68
2024/01/02 11:30:42;;;;;;;0.28;0.28;;;9.30;99.90;;;;;;4837621;29;20398;-68
2024/01/02 11:33:23;;;;;;;0.52;0.17;;;9.30;99.90;;;;;;4824160;29;20496;-67
2024/01/02 11:36:11;;;;;;;1.33;0.50;;;9.30;99.90;;;;;;4839498;29;20127;-66
2024/01/02 11:39:07;;;;;;;0.10;0.10;;;9.30;99.90;;;;;;4840411;29;20537;-68
2024/01/02 11:42:04;;;;;;;0.20;0.10;;;9.20;99.90;;;;;;4843175;29;20029;-68
2024/01/02 11:45:08;;;;;;;0.10;0.10;;;9.20;99.90;;;;;;4841079;29;20094;-68
2024/01/02 11:48:15;;;;;;;0.25;0.10;;;9.10;99.90;;;;;;4843047;29;20447;-68
2024/01/02 11:51:01;;;;;;;0.10;0.10;;;9.10;99.90;;;;;;4840471;29;20046;-68
2024/01/02 11:53:36;;;;;;;0.80;0.30;;;9.10;99.90;;;;;;4842518;29;20112;-68
2024/01/02 11:56:09;;;;;;;1.05;0.30;;;9.20;99.90;;;;;;4841748;29;20048;-68
2024/01/02 11:58:42;;;;;;;0.43;0.38;;;9.10;99.90;;;;;;4836943;29;20066;-68
2024/01/02 12:01:49;;;;;;;0.20;0.20;;;9.00;99.90;;;;;;4840895;29;20422;-68
2024/01/02 12:04:30;;;;;;;0.28;0.17;;;9.00;99.90;;;;;;4839304;29;20058;-68
2024/01/02 12:07:05;;;;;;;0.80;0.40;;;8.90;99.90;;;;;;4856942;29;20388;-68
2024/01/02 12:09:39;;;;;;;0.22;0.22;;;9.00;99.90;;;;;;4840501;29;20505;-68
2024/01/02 12:12:23;;;;;;;0.13;0.13;;;8.90;99.90;;;;;;4841561;29;20030;-68
2024/01/02 12:15:13;;;;;;;0.10;0.10;;;8.90;99.90;;;;;;4841435;29;20034;-67
2024/01/02 12:17:58;;;;;;;0.10;0.10;;;8.90;99.90;;;;;;4847681;29;20030;-67
2024/01/02 12:20:25;;;;;;;1.42;0.75;;;8.90;99.90;;;;;;4841533;29;20503;-68
2024/01/02 12:22:53;;;;;;;0.30;0.20;;;8.90;99.90;;;;;;4836806;29;20086;-68
2024/01/02 12:25:19;;;;;;;0.10;0.10;;;8.90;99.90;;;;;;4841649;29;20034;-68
2024/01/02 12:27:49;;;;;;;0.30;0.20;;;8.90;99.90;;;;;;4858851;29;20036;-68
2024/01/02 12:30:48;;;;;;;0.00;0.00;;;8.90;99.90;;;;;;4841993;29;20432;-67
2024/01/02 12:33:46;;;;;;;0.45;0.10;;;8.90;99.90;;;;;;4824752;29;20064;-68
2024/01/02 12:36:21;;;;;;;0.85;0.28;;;9.00;99.90;;;;;;4838910;29;20054;-67
2024/01/02 12:38:51;;;;;;;0.20;0.20;;;8.90;99.90;;;;;;4829440;29;20029;-67
2024/01/02 12:41:26;;;;;;;0.22;0.20;;;9.00;99.90;;;;;;4834539;29;20068;-68
2024/01/02 12:43:56;;;;;;;0.80;0.40;;;9.00;99.90;;;;;;4848589;29;20118;-68
2024/01/02 12:46:47;;;;;;;0.38;0.38;;;9.00;99.90;;;;;;4834825;29;20045;-68
2024/01/02 12:49:46;;;;;;;1.98;0.47;;;9.00;99.90;;;;;;4836383;29;20083;-67
2024/01/02 12:52:25;;;;;;;0.40;0.32;;;9.00;99.90;;;;;;4836773;29;20355;-69
2024/01/02 12:54:56;;;;;;;0.93;0.60;;;9.00;99.90;;;;;;4832772;29;20085;-69
2024/01/02 12:57:23;;;;;;;0.35;0.30;;;9.00;99.90;;;;;;4841152;29;20526;-67
2024/01/02 12:59:51;;;;;;;0.65;0.50;;;9.00;99.90;;;;;;4840427;29;20033;-67
2024/01/02 13:02:20;;;;;;;0.17;0.10;;;9.10;99.90;;;;;;4837185;29;20170;-67
2024/01/02 13:04:47;;;;;;;0.22;0.22;;;9.10;99.90;;;;;;4853910;29;20095;-68
2024/01/02 13:07:13;;;;;;;0.17;0.15;;;9.10;99.90;;;;;;4841346;29;20045;-68
2024/01/02 13:09:41;;;;;;;2.60;0.35;;;9.10;99.90;;;;;;4832143;29;20136;-69
2024/01/02 13:12:14;;;;;;;0.30;0.30;;;9.10;99.90;;;;;;4832448;29;20026;-69
2024/01/02 13:14:40;;;;;;;1.80;0.57;;;9.10;99.90;;;;;;4833640;29;20037;-67
2024/01/02 13:17:06;;;;;;;0.15;0.15;;;9.20;99.90;;;;;;4828074;29;20046;-67
2024/01/02 13:19:32;;;;;;;1.35;0.32;;;9.20;99.90;;;;;;4832019;29;20151;-68
2024/01/02 13:21:59;;;;;;;0.50;0.40;;;9.20;99.90;;;;;;4832026;29;20113;-68
2024/01/02 13:24:25;;;;;;;0.20;0.10;;;9.20;99.90;;;;;;4830563;29;20093;-66
2024/01/02 13:26:51;;;;;;;0.57;0.30;;;9.20;99.90;;;;;;4842572;29;20046;-68
2024/01/02 13:29:18;;;;;;;1.88;0.63;;;9.20;99.90;;;;;;4831493;29;20037;-68
2024/01/02 13:31:56;;;;;;;0.93;0.68;;;9.30;99.90;;;;;;4826713;29;20146;-68
2024/01/02 13:34:27;;;;;;;0.32;0.30;;;9.30;99.90;;;;;;4828205;29;20022;-68
2024/01/02 13:36:55;;;;;;;2.30;0.28;;;9.30;99.90;;;;;;4833548;29;20037;-68
2024/01/02 13:39:39;;;;;;;0.63;0.40;;;9.30;99.90;;;;;;4830903;29;20119;-68
2024/01/02 13:42:08;;;;;;;1.30;0.38;;;9.30;99.90;;;;;;4835827;29;20030;-68
2024/01/02 13:44:36;;;;;;;0.57;0.30;;;9.30;99.90;;;;;;4839029;29;20033;-68
2024/01/02 13:47:04;;;;;;;1.45;0.57;;;9.30;99.90;;;;;;4842406;29;20049;-68
2024/01/02 13:49:51;;;;;;;0.65;0.40;;;9.30;99.90;;;;;;4841992;29;20503;-68
2024/01/02 13:52:30;;;;;;;0.52;0.38;;;9.20;99.90;;;;;;4832943;29;20050;-68
2024/01/02 13:54:57;;;;;;;0.63;0.43;;;9.20;99.90;;;;;;4837532;29;20063;-68
2024/01/02 13:57:34;;;;;;;0.55;0.40;;;9.20;99.90;;;;;;4850047;29;20086;-67
2024/01/02 14:00:11;;;;;;;0.60;0.40;;;9.20;99.90;;;;;;4847024;29;20097;-68
2024/01/02 14:02:39;;;;;;;0.20;0.20;;;9.20;99.90;;;;;;4836465;29;20034;-69
2024/01/02 14:05:06;;;;;;;0.38;0.17;;;9.20;99.90;;;;;;4840301;29;20030;-68
2024/01/02 14:07:33;;;;;;;1.83;0.88;;;9.20;99.90;;;;;;4838675;29;20037;-68
2024/01/02 14:10:00;;;;;;;1.98;0.80;;;9.20;99.90;;;;;;4840915;29;20086;-69
2024/01/02 14:12:39;;;;;;;0.45;0.30;;;9.20;99.90;;;;;;4839844;29;20026;-68
2024/01/02 14:15:19;;;;;;;0.55;0.35;;;9.20;99.90;;;;;;4839747;29;20030;-68
2024/01/02 14:17:48;;;;;;;0.20;0.20;;;9.20;99.90;;;;;;4840439;29;20038;-67
2024/01/02 14:20:18;;;;;;;0.32;0.13;;;9.20;99.90;;;;;;4848243;29;20129;-68
2024/01/02 14:22:54;;;;;;;0.03;0.03;;;9.20;99.90;;;;;;4839069;29;20042;-71
2024/01/02 14:26:19;;;;;;;0.22;0.22;;;9.20;99.90;;;;;;4841592;29;20079;-68
2024/01/02 14:29:04;;;;;;;1.08;0.45;;;9.20;99.90;;;;;;4819643;29;20046;-69
2024/01/02 14:32:05;;;;;;;0.70;0.50;;;9.20;99.90;;;;;;4804026;29;20502;-68
2024/01/02 14:34:44;;;;;;;0.52;0.30;;;9.20;99.90;;;;;;4837295;29;20078;-69
2024/01/02 14:37:46;;;;;;;2.25;0.40;;;9.20;99.90;;;;;;4844801;29;20069;-68
2024/01/02 14:40:26;;;;;;;0.20;0.20;;;9.30;99.90;;;;;;4843356;29;20463;-67
2024/01/02 14:43:23;;;;;;;0.65;0.13;;;9.30;99.90;;;;;;4840866;29;20057;-67
2024/01/02 14:46:38;;;;;;;0.50;0.40;;;9.20;99.90;;;;;;4838683;29;20034;-68
2024/01/02 14:49:32;;;;;;;0.90;0.30;;;9.30;99.90;;;;;;4836712;29;20566;-69
2024/01/02 14:52:34;;;;;;;2.40;0.20;;;9.20;99.90;;;;;;4832020;29;20042;-68
2024/01/02 14:55:51;;;;;;;0.10;0.10;;;9.30;99.90;;;;;;4843040;29;20040;-69
2024/01/02 14:58:35;;;;;;;0.38;0.38;;;9.30;99.90;;;;;;4838393;29;20046;-69
2024/01/02 15:01:06;;;;;;;1.85;0.43;;;9.30;99.90;;;;;;4843431;29;20041;-69
2024/01/02 15:04:02;;;;;;;0.38;0.38;;;9.30;99.90;;;;;;4843748;29;20036;-69
2024/01/02 15:28:39;;;;;;;4.53;1.05;;;9.30;99.90;;;;;;4853838;29;20053;-66
2024/01/02 15:31:09;;;;;;;0.47;0.40;;;9.30;99.90;;;;;;4843454;29;20538;-66
2024/01/02 15:33:41;;;;;;;0.63;0.25;;;9.40;99.90;;;;;;4850409;29;20033;-67
2024/01/02 15:36:29;;;;;;;0.52;0.30;;;9.40;99.90;;;;;;4860833;29;20129;-66
2024/01/02 15:39:07;;;;;;;0.25;0.20;;;9.40;99.90;;;;;;4854712;29;20137;-66
2024/01/02 15:41:39;;;;;;;1.17;0.57;;;9.40;99.90;;;;;;4842937;29;20037;-67
2024/01/02 15:44:58;;;;;;;4.03;0.40;;;9.40;99.90;;;;;;4822538;29;20109;-67
2024/01/02 15:47:39;;;;;;;1.65;0.43;;;9.40;99.90;;;;;;4855799;29;20402;-67
2024/01/02 15:50:23;;;;;;;1.33;0.98;;;9.40;99.90;;;;;;4853380;29;20065;-67
2024/01/02 15:52:57;;;;;;;0.60;0.38;;;9.40;99.90;;;;;;4857255;29;20041;-67
2024/01/02 15:55:41;;;;;;;0.28;0.28;;;9.40;99.90;;;;;;4833559;29;20049;-67
2024/01/02 15:58:26;;;;;;;0.50;0.45;;;9.40;99.90;;;;;;4847697;29;20059;-67
2024/01/02 16:00:55;;;;;;;0.20;0.20;;;9.40;99.90;;;;;;4853703;29;20113;-69
2024/01/02 16:04:17;;;;;;;1.10;0.45;;;9.40;99.90;;;;;;4831476;29;20033;-71
2024/01/02 16:07:10;;;;;;;0.17;0.17;;;9.40;99.90;;;;;;4824311;29;20049;-71
2024/01/02 16:10:23;;;;;;;0.32;0.30;;;9.40;99.90;;;;;;4842008;29;20058;-67
2024/01/02 16:13:11;;;;;;;0.57;0.22;;;9.50;99.90;;;;;;4857746;29;20093;-67
2024/01/02 16:15:48;;;;;;;0.80;0.40;;;9.50;99.90;;;;;;4857235;29;20029;-67
2024/01/02 16:18:45;;;;;;;0.75;0.50;;;9.50;99.90;;;;;;4855500;29;20050;-70
2024/01/02 16:21:29;;;;;;;2.83;0.40;;;9.50;99.90;;;;;;4860456;29;20076;-68
2024/01/02 16:24:01;;;;;;;1.13;0.65;;;9.50;99.90;;;;;;4862648;29;20093;-67
2024/01/02 16:27:09;;;;;;;0.63;0.63;;;9.50;99.90;;;;;;4858456;29;20045;-66
2024/01/02 16:30:08;;;;;;;1.17;0.57;;;9.50;99.90;;;;;;4847378;29;20443;-68